createdAt,value
2022-10-13T00:00:42.999Z,8.17
2022-10-13T00:05:48.337Z,9.40
2022-10-13T00:10:52.524Z,8.57
2022-10-13T00:16:04.069Z,9.47
2022-10-13T00:21:09.324Z,9.07
2022-10-13T00:26:15.229Z,8.83
2022-10-13T00:31:21.239Z,8.67
2022-10-13T00:36:24.931Z,9.07
2022-10-13T00:41:28.305Z,8.23
2022-10-13T00:46:34.383Z,9.90
2022-10-13T00:51:42.229Z,8.83
2022-10-13T00:56:46.859Z,8.80
2022-10-13T01:01:52.468Z,8.77
2022-10-13T01:06:56.260Z,8.57
2022-10-13T01:12:08.460Z,8.57
2022-10-13T01:17:20.287Z,9.00
2022-10-13T01:22:46.308Z,8.20
2022-10-13T01:28:10.058Z,8.13
2022-10-13T01:33:36.123Z,8.53
2022-10-13T01:38:46.632Z,8.87
2022-10-13T01:43:54.919Z,8.30
2022-10-13T01:49:03.649Z,8.63
2022-10-13T01:54:07.081Z,8.83
2022-10-13T01:59:14.747Z,7.90
2022-10-13T02:04:32.400Z,8.93
2022-10-13T02:09:42.632Z,8.93
2022-10-13T02:14:47.972Z,8.67
2022-10-13T02:19:52.347Z,8.10
2022-10-13T02:24:55.281Z,8.00
2022-10-13T02:29:59.098Z,8.10
2022-10-13T02:35:07.624Z,8.50
2022-10-13T02:40:11.644Z,8.97
2022-10-13T02:45:15.047Z,7.83
2022-10-13T02:50:19.685Z,9.20
2022-10-13T02:55:26.456Z,8.47
2022-10-13T03:00:32.843Z,8.63
2022-10-13T03:05:37.137Z,8.47
2022-10-13T03:10:40.296Z,8.70
2022-10-13T03:15:43.205Z,8.83
2022-10-13T03:20:56.725Z,8.57
2022-10-13T03:25:59.659Z,9.53
2022-10-13T03:31:03.211Z,8.87
2022-10-13T03:36:08.784Z,8.57
2022-10-13T03:41:13.716Z,8.37
2022-10-13T03:46:19.382Z,9.17
2022-10-13T03:51:24.969Z,8.40
2022-10-13T03:56:28.955Z,8.87
2022-10-13T04:01:32.173Z,8.60
2022-10-13T04:06:36.451Z,8.50
2022-10-13T04:11:39.530Z,8.70
2022-10-13T04:16:42.505Z,9.03
2022-10-13T04:21:46.750Z,8.90
2022-10-13T04:26:49.661Z,9.40
2022-10-13T04:31:53.067Z,8.83
2022-10-13T04:36:57.494Z,9.03
2022-10-13T04:42:00.398Z,9.37
2022-10-13T04:47:03.280Z,9.00
2022-10-13T04:52:07.742Z,9.70
2022-10-13T04:57:10.736Z,9.17
2022-10-13T05:02:13.681Z,8.73
2022-10-13T05:07:18.767Z,9.70
2022-10-13T05:12:22.221Z,9.60
2022-10-13T05:17:26.238Z,9.47
2022-10-13T05:22:31.022Z,9.10
2022-10-13T05:27:35.165Z,9.70
2022-10-13T05:32:40.912Z,9.93
2022-10-13T05:37:46.254Z,9.83
2022-10-13T05:42:50.584Z,8.83
2022-10-13T05:47:53.891Z,9.30
2022-10-13T05:52:58.634Z,8.77
2022-10-13T05:58:03.378Z,10.13
2022-10-13T06:03:14.065Z,10.07
2022-10-13T06:08:21.026Z,10.40
2022-10-13T06:13:27.496Z,10.20
2022-10-13T06:18:30.469Z,9.73
2022-10-13T06:23:34.893Z,10.27
2022-10-13T06:28:38.071Z,9.93
2022-10-13T06:33:41.152Z,11.07
2022-10-13T06:38:45.516Z,10.53
2022-10-13T06:43:48.421Z,9.43
2022-10-13T06:48:53.620Z,10.53
2022-10-13T06:53:59.171Z,11.63
2022-10-13T06:59:02.621Z,11.43
2022-10-13T07:04:05.564Z,11.40
2022-10-13T07:09:10.549Z,11.83
2022-10-13T07:14:13.731Z,12.53
2022-10-13T07:19:16.706Z,12.20
2022-10-13T07:24:21.140Z,10.80
2022-10-13T07:29:24.292Z,11.70
2022-10-13T07:34:27.407Z,10.93
2022-10-13T07:39:31.976Z,10.07
2022-10-13T07:44:34.955Z,9.63
2022-10-13T07:49:38.199Z,10.73
2022-10-13T07:54:42.611Z,10.37
2022-10-13T07:59:45.805Z,10.50
2022-10-13T08:04:49.565Z,9.53
2022-10-13T08:09:53.907Z,10.47
2022-10-13T08:14:59.350Z,10.93
2022-10-13T08:20:06.742Z,11.13
2022-10-13T08:25:12.410Z,10.00
2022-10-13T08:30:15.466Z,10.63
2022-10-13T08:35:18.457Z,9.83
2022-10-13T08:40:24.260Z,10.47
2022-10-13T08:45:45.649Z,10.67
2022-10-13T08:50:56.050Z,10.80
2022-10-13T08:56:05.951Z,11.83
2022-10-13T09:01:15.528Z,11.23
2022-10-13T09:06:27.766Z,9.47
2022-10-13T09:11:35.130Z,10.60
2022-10-13T09:16:40.052Z,10.57
2022-10-13T09:21:45.589Z,11.20
2022-10-13T09:26:52.793Z,10.98
2022-10-13T09:32:14.408Z,10.88
2022-10-13T09:37:20.956Z,11.27
2022-10-13T09:42:27.805Z,11.80
2022-10-13T09:47:33.476Z,11.87
2022-10-13T09:52:37.153Z,10.97
2022-10-13T09:57:47.105Z,11.27
2022-10-13T10:02:55.175Z,10.95
2022-10-13T10:08:04.175Z,11.35
2022-10-13T10:13:11.940Z,10.90
2022-10-13T10:18:19.664Z,11.85
2022-10-13T10:23:33.895Z,10.60
2022-10-13T10:28:51.835Z,10.63
2022-10-13T10:34:15.307Z,11.43
2022-10-13T10:39:25.909Z,11.13
2022-10-13T10:44:34.274Z,10.73
2022-10-13T10:49:39.476Z,11.15
2022-10-13T10:54:50.139Z,10.43
2022-10-13T11:00:04.939Z,10.05
2022-10-13T11:05:08.036Z,10.07
2022-10-13T11:10:21.472Z,9.27
2022-10-13T11:15:27.554Z,8.90
2022-10-13T11:20:58.233Z,9.15
2022-10-13T11:26:29.774Z,9.05
2022-10-13T11:31:49.764Z,9.15
2022-10-13T11:36:57.735Z,11.32
2022-10-13T11:42:20.821Z,11.32
2022-10-13T11:47:53.890Z,11.15
2022-10-13T11:53:18.819Z,9.88
2022-10-13T11:58:24.125Z,10.95
2022-10-13T12:03:30.964Z,10.18
2022-10-13T12:08:35.762Z,9.32
2022-10-13T12:13:39.038Z,9.38
2022-10-13T12:18:43.529Z,9.98
2022-10-13T12:23:47.454Z,9.50
2022-10-13T12:28:55.493Z,10.45
2022-10-13T12:34:01.333Z,9.80
2022-10-13T12:39:08.597Z,9.65
2022-10-13T12:44:16.091Z,9.07
2022-10-13T12:49:23.501Z,9.43
2022-10-13T12:54:29.837Z,9.82
2022-10-13T12:59:33.581Z,9.63
2022-10-13T13:04:45.061Z,10.00
2022-10-13T13:10:01.473Z,9.80
2022-10-13T13:15:21.864Z,9.75
2022-10-13T13:20:30.052Z,10.23
2022-10-13T13:25:33.418Z,8.73
2022-10-13T13:30:37.131Z,9.75
2022-10-13T13:35:41.937Z,10.60
2022-10-13T13:40:45.062Z,9.73
2022-10-13T13:45:48.873Z,10.50
2022-10-13T13:50:53.281Z,11.02
2022-10-13T13:55:56.600Z,13.18
2022-10-13T14:01:00.801Z,9.63
2022-10-13T14:06:05.726Z,9.80
2022-10-13T14:11:09.421Z,10.50
2022-10-13T14:16:17.820Z,11.07
2022-10-13T14:21:23.902Z,10.45
2022-10-13T14:26:26.943Z,11.25
2022-10-13T14:31:30.780Z,12.13
2022-10-13T14:36:35.164Z,11.73
2022-10-13T14:41:38.905Z,12.70
2022-10-13T14:46:42.079Z,12.07
2022-10-13T14:51:46.719Z,12.70
2022-10-13T14:56:49.726Z,12.13
2022-10-13T15:01:52.677Z,12.50
2022-10-13T15:06:57.315Z,12.23
2022-10-13T15:12:00.733Z,11.65
2022-10-13T15:17:04.678Z,12.00
2022-10-13T15:22:09.565Z,12.05
2022-10-13T15:27:12.643Z,10.23
2022-10-13T15:32:18.724Z,11.55
2022-10-13T15:37:28.855Z,10.52
2022-10-13T15:42:31.800Z,11.65
2022-10-13T15:47:36.565Z,9.75
2022-10-13T15:52:41.575Z,11.27
2022-10-13T15:57:45.606Z,9.45
2022-10-13T16:02:52.183Z,10.43
2022-10-13T16:07:56.566Z,11.80
2022-10-13T16:12:59.774Z,12.17
2022-10-13T16:18:02.830Z,11.30
2022-10-13T16:23:07.245Z,9.55
2022-10-13T16:28:10.288Z,8.52
2022-10-13T16:33:15.050Z,6.93
2022-10-13T16:38:19.821Z,6.95
2022-10-13T16:43:22.747Z,6.32
2022-10-13T16:48:31.218Z,7.03
2022-10-13T16:53:35.929Z,7.20
2022-10-13T16:58:43.402Z,11.40
2022-10-13T17:03:47.245Z,11.17
2022-10-13T17:08:51.727Z,9.83
2022-10-13T17:13:57.283Z,9.73
2022-10-13T17:19:00.285Z,10.83
2022-10-13T17:24:10.994Z,11.30
2022-10-13T17:29:13.953Z,12.03
2022-10-13T17:34:16.886Z,14.13
2022-10-13T17:39:21.159Z,13.47
2022-10-13T17:44:24.173Z,11.90
2022-10-13T17:49:27.136Z,10.97
2022-10-13T17:54:31.586Z,11.77
2022-10-13T17:59:34.579Z,11.53
2022-10-13T18:04:37.636Z,12.40
2022-10-13T18:09:42.125Z,15.60
2022-10-13T18:14:45.120Z,15.53
2022-10-13T18:19:49.211Z,19.47
2022-10-13T18:24:57.077Z,21.33
2022-10-13T18:30:00.365Z,21.43
2022-10-13T18:35:05.793Z,22.13
2022-10-13T18:40:11.626Z,22.83
2022-10-13T18:45:14.826Z,22.30
2022-10-13T18:50:17.946Z,20.83
2022-10-13T18:55:23.029Z,21.83
2022-10-13T19:00:26.363Z,21.57
2022-10-13T19:05:29.480Z,19.63
2022-10-13T19:10:34.673Z,18.50
2022-10-13T19:15:39.459Z,18.93
2022-10-13T19:20:42.681Z,18.07
2022-10-13T19:25:46.974Z,17.73
2022-10-13T19:30:51.033Z,17.73
2022-10-13T19:35:54.067Z,18.67
2022-10-13T19:41:03.097Z,18.10
2022-10-13T19:46:08.251Z,17.63
2022-10-13T19:51:11.829Z,18.27
2022-10-13T19:56:25.796Z,18.33
2022-10-13T20:01:29.384Z,19.23
2022-10-13T20:06:34.209Z,23.20
2022-10-13T20:11:40.146Z,21.10
2022-10-13T20:16:43.474Z,19.43
2022-10-13T20:21:48.096Z,18.07
2022-10-13T20:26:52.500Z,19.33
2022-10-13T20:31:58.127Z,20.90
2022-10-13T20:37:01.075Z,21.17
2022-10-13T20:42:06.685Z,21.67
2022-10-13T20:47:09.680Z,22.57
2022-10-13T20:52:12.808Z,26.67
2022-10-13T20:57:17.097Z,26.67
2022-10-13T21:02:22.803Z,25.23
2022-10-13T21:07:28.419Z,24.40
2022-10-13T21:12:35.985Z,24.03
2022-10-13T21:17:42.307Z,24.97
2022-10-13T21:22:45.471Z,24.60
2022-10-13T21:27:52.749Z,25.87
2022-10-13T21:32:55.900Z,27.97
2022-10-13T21:37:58.844Z,25.10
2022-10-13T21:43:03.141Z,23.97
2022-10-13T21:48:07.653Z,25.60
2022-10-13T21:53:10.652Z,24.43
2022-10-13T21:58:14.984Z,22.93
2022-10-13T22:03:17.908Z,24.67
2022-10-13T22:08:37.345Z,24.37
2022-10-13T22:13:47.215Z,23.67
2022-10-13T22:18:52.980Z,25.27
2022-10-13T22:23:58.722Z,25.23
2022-10-13T22:29:04.553Z,25.43
2022-10-13T22:34:07.489Z,24.57
2022-10-13T22:39:11.436Z,23.57
2022-10-13T22:44:15.773Z,26.93
2022-10-13T22:49:18.908Z,23.93
2022-10-13T22:54:21.897Z,28.87
2022-10-13T22:59:26.180Z,28.20
2022-10-13T23:04:29.518Z,23.57
2022-10-13T23:09:32.438Z,25.63
2022-10-13T23:14:36.754Z,23.47
2022-10-13T23:19:39.741Z,22.63
2022-10-13T23:24:42.713Z,21.80
2022-10-13T23:29:46.941Z,22.10
2022-10-13T23:34:49.879Z,21.73
2022-10-13T23:39:52.842Z,23.80
2022-10-13T23:44:57.078Z,22.00
2022-10-13T23:49:59.949Z,22.00
2022-10-13T23:55:02.902Z,22.50
